sensor_id;sensor_type;location;lat;lon;timestamp;P1;durP1;ratioP1;P2;durP2;ratioP2
68888;SDS011;55930;47.412;8.790;2024-03-08T00:01:04;48.23;;;25.27;;
68888;SDS011;55930;47.412;8.790;2024-03-08T00:04:24;60.43;;;33.00;;
68888;SDS011;55930;47.412;8.790;2024-03-08T00:07:45;56.33;;;32.67;;
68888;SDS011;55930;47.412;8.790;2024-03-08T00:11:08;65.75;;;33.25;;
68888;SDS011;55930;47.412;8.790;2024-03-08T00:14:28;62.83;;;33.90;;
68888;SDS011;55930;47.412;8.790;2024-03-08T00:17:51;64.25;;;34.20;;
68888;SDS011;55930;47.412;8.790;2024-03-08T00:21:14;62.28;;;32.53;;
68888;SDS011;55930;47.412;8.790;2024-03-08T00:24:35;59.20;;;31.90;;
68888;SDS011;55930;47.412;8.790;2024-03-08T00:27:58;61.57;;;31.80;;
68888;SDS011;55930;47.412;8.790;2024-03-08T00:31:19;58.95;;;31.20;;
68888;SDS011;55930;47.412;8.790;2024-03-08T00:34:42;57.88;;;30.92;;
68888;SDS011;55930;47.412;8.790;2024-03-08T00:38:03;59.77;;;31.73;;
68888;SDS011;55930;47.412;8.790;2024-03-08T00:41:23;54.50;;;30.83;;
68888;SDS011;55930;47.412;8.790;2024-03-08T00:44:46;61.38;;;31.48;;
68888;SDS011;55930;47.412;8.790;2024-03-08T00:48:08;55.88;;;30.40;;
68888;SDS011;55930;47.412;8.790;2024-03-08T00:51:29;54.70;;;31.27;;
68888;SDS011;55930;47.412;8.790;2024-03-08T00:54:52;59.28;;;30.83;;
68888;SDS011;55930;47.412;8.790;2024-03-08T00:58:13;55.67;;;30.37;;
68888;SDS011;55930;47.412;8.790;2024-03-08T01:01:33;43.10;;;23.33;;
68888;SDS011;55930;47.412;8.790;2024-03-08T01:04:53;63.57;;;30.70;;
68888;SDS011;55930;47.412;8.790;2024-03-08T01:08:16;61.92;;;31.73;;
68888;SDS011;55930;47.412;8.790;2024-03-08T01:11:37;62.63;;;33.30;;
68888;SDS011;55930;47.412;8.790;2024-03-08T01:14:58;62.08;;;32.67;;
68888;SDS011;55930;47.412;8.790;2024-03-08T01:18:18;67.17;;;36.17;;
68888;SDS011;55930;47.412;8.790;2024-03-08T01:21:39;67.60;;;33.47;;
68888;SDS011;55930;47.412;8.790;2024-03-08T01:25:00;62.30;;;31.93;;
68888;SDS011;55930;47.412;8.790;2024-03-08T01:28:20;62.93;;;33.53;;
68888;SDS011;55930;47.412;8.790;2024-03-08T01:31:41;65.87;;;31.33;;
68888;SDS011;55930;47.412;8.790;2024-03-08T01:35:03;57.97;;;29.95;;
68888;SDS011;55930;47.412;8.790;2024-03-08T01:38:24;54.13;;;28.77;;
68888;SDS011;55930;47.412;8.790;2024-03-08T01:41:44;52.37;;;27.23;;
68888;SDS011;55930;47.412;8.790;2024-03-08T01:45:05;51.60;;;28.40;;
68888;SDS011;55930;47.412;8.790;2024-03-08T01:48:27;49.40;;;26.85;;
68888;SDS011;55930;47.412;8.790;2024-03-08T01:51:49;50.88;;;27.52;;
68888;SDS011;55930;47.412;8.790;2024-03-08T01:55:09;51.40;;;26.67;;
68888;SDS011;55930;47.412;8.790;2024-03-08T01:58:30;52.53;;;28.23;;
68888;SDS011;55930;47.412;8.790;2024-03-08T02:01:50;48.13;;;26.77;;
68888;SDS011;55930;47.412;8.790;2024-03-08T02:05:11;53.33;;;27.65;;
68888;SDS011;55930;47.412;8.790;2024-03-08T02:08:33;54.13;;;28.30;;
68888;SDS011;55930;47.412;8.790;2024-03-08T02:11:54;49.58;;;27.13;;
68888;SDS011;55930;47.412;8.790;2024-03-08T02:15:16;55.40;;;30.33;;
68888;SDS011;55930;47.412;8.790;2024-03-08T02:18:37;52.20;;;29.33;;
68888;SDS011;55930;47.412;8.790;2024-03-08T02:22:01;52.42;;;27.27;;
68888;SDS011;55930;47.412;8.790;2024-03-08T02:25:24;57.85;;;30.17;;
68888;SDS011;55930;47.412;8.790;2024-03-08T02:28:44;59.53;;;31.23;;
68888;SDS011;55930;47.412;8.790;2024-03-08T02:32:05;59.78;;;32.00;;
68888;SDS011;55930;47.412;8.790;2024-03-08T02:35:26;53.90;;;29.47;;
68888;SDS011;55930;47.412;8.790;2024-03-08T02:38:46;57.00;;;29.43;;
68888;SDS011;55930;47.412;8.790;2024-03-08T02:42:07;56.37;;;28.20;;
68888;SDS011;55930;47.412;8.790;2024-03-08T02:45:30;58.83;;;31.00;;
68888;SDS011;55930;47.412;8.790;2024-03-08T02:48:51;52.43;;;28.30;;
68888;SDS011;55930;47.412;8.790;2024-03-08T02:52:13;60.80;;;31.15;;
68888;SDS011;55930;47.412;8.790;2024-03-08T02:55:36;59.30;;;30.52;;
68888;SDS011;55930;47.412;8.790;2024-03-08T02:58:57;60.22;;;30.10;;
68888;SDS011;55930;47.412;8.790;2024-03-08T03:02:18;62.67;;;31.97;;
68888;SDS011;55930;47.412;8.790;2024-03-08T03:05:38;60.37;;;31.33;;
68888;SDS011;55930;47.412;8.790;2024-03-08T03:09:01;60.70;;;32.25;;
68888;SDS011;55930;47.412;8.790;2024-03-08T03:12:22;61.77;;;32.53;;
68888;SDS011;55930;47.412;8.790;2024-03-08T03:15:42;62.03;;;31.33;;
68888;SDS011;55930;47.412;8.790;2024-03-08T03:19:03;66.10;;;32.53;;
68888;SDS011;55930;47.412;8.790;2024-03-08T03:22:25;65.53;;;33.25;;
68888;SDS011;55930;47.412;8.790;2024-03-08T03:25:46;62.93;;;32.63;;
68888;SDS011;55930;47.412;8.790;2024-03-08T03:29:07;59.25;;;32.45;;
68888;SDS011;55930;47.412;8.790;2024-03-08T03:32:29;64.07;;;32.17;;
68888;SDS011;55930;47.412;8.790;2024-03-08T03:35:49;55.27;;;30.70;;
68888;SDS011;55930;47.412;8.790;2024-03-08T03:39:11;67.35;;;32.78;;
68888;SDS011;55930;47.412;8.790;2024-03-08T03:42:40;59.22;;;30.42;;
68888;SDS011;55930;47.412;8.790;2024-03-08T03:46:00;69.50;;;34.13;;
68888;SDS011;55930;47.412;8.790;2024-03-08T03:49:25;60.75;;;30.63;;
68888;SDS011;55930;47.412;8.790;2024-03-08T03:52:46;62.50;;;31.30;;
68888;SDS011;55930;47.412;8.790;2024-03-08T03:56:07;61.95;;;31.13;;
68888;SDS011;55930;47.412;8.790;2024-03-08T03:59:27;54.97;;;29.43;;
68888;SDS011;55930;47.412;8.790;2024-03-08T04:02:50;54.67;;;25.52;;
68888;SDS011;55930;47.412;8.790;2024-03-08T04:06:11;51.05;;;27.40;;
68888;SDS011;55930;47.412;8.790;2024-03-08T04:09:31;48.30;;;26.37;;
68888;SDS011;55930;47.412;8.790;2024-03-08T04:12:52;51.60;;;27.30;;
68888;SDS011;55930;47.412;8.790;2024-03-08T04:16:12;54.50;;;29.50;;
68888;SDS011;55930;47.412;8.790;2024-03-08T04:19:32;58.53;;;30.53;;
68888;SDS011;55930;47.412;8.790;2024-03-08T04:22:54;53.10;;;27.58;;
68888;SDS011;55930;47.412;8.790;2024-03-08T04:26:17;51.03;;;28.70;;
68888;SDS011;55930;47.412;8.790;2024-03-08T04:29:38;49.72;;;27.98;;
68888;SDS011;55930;47.412;8.790;2024-03-08T04:32:58;46.00;;;25.53;;
68888;SDS011;55930;47.412;8.790;2024-03-08T04:36:19;46.13;;;26.60;;
68888;SDS011;55930;47.412;8.790;2024-03-08T04:39:42;45.10;;;25.50;;
68888;SDS011;55930;47.412;8.790;2024-03-08T04:43:02;48.20;;;24.63;;
68888;SDS011;55930;47.412;8.790;2024-03-08T04:46:23;49.97;;;27.10;;
68888;SDS011;55930;47.412;8.790;2024-03-08T04:49:43;47.67;;;26.42;;
68888;SDS011;55930;47.412;8.790;2024-03-08T04:53:04;42.47;;;24.03;;
68888;SDS011;55930;47.412;8.790;2024-03-08T04:56:28;45.67;;;25.15;;
68888;SDS011;55930;47.412;8.790;2024-03-08T04:59:48;47.63;;;26.70;;
68888;SDS011;55930;47.412;8.790;2024-03-08T05:03:08;37.37;;;20.30;;
68888;SDS011;55930;47.412;8.790;2024-03-08T05:06:31;39.63;;;23.13;;
68888;SDS011;55930;47.412;8.790;2024-03-08T05:09:54;38.50;;;24.23;;
68888;SDS011;55930;47.412;8.790;2024-03-08T05:13:15;41.33;;;23.13;;
68888;SDS011;55930;47.412;8.790;2024-03-08T05:16:36;41.25;;;22.70;;
68888;SDS011;55930;47.412;8.790;2024-03-08T05:19:56;40.23;;;22.37;;
68888;SDS011;55930;47.412;8.790;2024-03-08T05:23:18;41.40;;;23.33;;
68888;SDS011;55930;47.412;8.790;2024-03-08T05:26:39;39.28;;;23.25;;
68888;SDS011;55930;47.412;8.790;2024-03-08T05:30:00;45.37;;;25.73;;
68888;SDS011;55930;47.412;8.790;2024-03-08T05:33:20;42.47;;;23.90;;
68888;SDS011;55930;47.412;8.790;2024-03-08T05:36:41;41.17;;;23.80;;
68888;SDS011;55930;47.412;8.790;2024-03-08T05:40:04;46.00;;;24.83;;
68888;SDS011;55930;47.412;8.790;2024-03-08T05:43:31;41.17;;;23.23;;
68888;SDS011;55930;47.412;8.790;2024-03-08T05:46:51;46.55;;;26.35;;
68888;SDS011;55930;47.412;8.790;2024-03-08T05:50:12;46.40;;;24.73;;
68888;SDS011;55930;47.412;8.790;2024-03-08T05:53:32;44.40;;;24.30;;
68888;SDS011;55930;47.412;8.790;2024-03-08T05:56:55;43.83;;;24.80;;
68888;SDS011;55930;47.412;8.790;2024-03-08T06:00:16;45.60;;;22.73;;
68888;SDS011;55930;47.412;8.790;2024-03-08T06:03:39;38.35;;;21.65;;
68888;SDS011;55930;47.412;8.790;2024-03-08T06:07:05;44.92;;;24.80;;
68888;SDS011;55930;47.412;8.790;2024-03-08T06:10:25;39.77;;;21.67;;
68888;SDS011;55930;47.412;8.790;2024-03-08T06:13:46;40.97;;;21.30;;
68888;SDS011;55930;47.412;8.790;2024-03-08T06:17:06;38.20;;;21.40;;
68888;SDS011;55930;47.412;8.790;2024-03-08T06:20:27;38.53;;;21.77;;
68888;SDS011;55930;47.412;8.790;2024-03-08T06:23:49;35.53;;;20.30;;
68888;SDS011;55930;47.412;8.790;2024-03-08T06:27:14;36.40;;;21.55;;
68888;SDS011;55930;47.412;8.790;2024-03-08T06:30:35;33.77;;;19.37;;
68888;SDS011;55930;47.412;8.790;2024-03-08T06:33:55;36.87;;;20.37;;
68888;SDS011;55930;47.412;8.790;2024-03-08T06:37:15;28.60;;;18.80;;
68888;SDS011;55930;47.412;8.790;2024-03-08T06:40:36;31.97;;;19.93;;
68888;SDS011;55930;47.412;8.790;2024-03-08T06:43:58;33.47;;;19.60;;
68888;SDS011;55930;47.412;8.790;2024-03-08T06:47:21;33.75;;;19.52;;
68888;SDS011;55930;47.412;8.790;2024-03-08T06:50:46;32.25;;;18.95;;
68888;SDS011;55930;47.412;8.790;2024-03-08T06:54:09;34.67;;;19.77;;
68888;SDS011;55930;47.412;8.790;2024-03-08T06:57:29;36.37;;;20.50;;
68888;SDS011;55930;47.412;8.790;2024-03-08T07:00:50;35.50;;;19.83;;
68888;SDS011;55930;47.412;8.790;2024-03-08T07:04:18;37.08;;;20.77;;
68888;SDS011;55930;47.412;8.790;2024-03-08T07:07:40;36.78;;;21.55;;
68888;SDS011;55930;47.412;8.790;2024-03-08T07:11:01;36.05;;;20.17;;
68888;SDS011;55930;47.412;8.790;2024-03-08T07:14:22;33.03;;;19.57;;
68888;SDS011;55930;47.412;8.790;2024-03-08T07:17:42;37.70;;;20.30;;
68888;SDS011;55930;47.412;8.790;2024-03-08T07:21:04;31.25;;;20.00;;
68888;SDS011;55930;47.412;8.790;2024-03-08T07:24:24;29.33;;;18.20;;
68888;SDS011;55930;47.412;8.790;2024-03-08T07:28:12;26.52;;;17.10;;
68888;SDS011;55930;47.412;8.790;2024-03-08T07:31:35;26.10;;;16.95;;
68888;SDS011;55930;47.412;8.790;2024-03-08T07:35:10;27.55;;;17.95;;
68888;SDS011;55930;47.412;8.790;2024-03-08T07:38:31;29.10;;;18.07;;
68888;SDS011;55930;47.412;8.790;2024-03-08T07:41:51;28.77;;;18.67;;
68888;SDS011;55930;47.412;8.790;2024-03-08T07:45:12;24.30;;;16.13;;
68888;SDS011;55930;47.412;8.790;2024-03-08T07:48:35;27.83;;;16.67;;
68888;SDS011;55930;47.412;8.790;2024-03-08T07:51:56;26.95;;;17.73;;
68888;SDS011;55930;47.412;8.790;2024-03-08T07:55:17;30.63;;;19.63;;
68888;SDS011;55930;47.412;8.790;2024-03-08T07:58:38;28.83;;;17.10;;
68888;SDS011;55930;47.412;8.790;2024-03-08T08:02:00;28.33;;;17.45;;
68888;SDS011;55930;47.412;8.790;2024-03-08T08:05:20;25.93;;;16.40;;
68888;SDS011;55930;47.412;8.790;2024-03-08T08:08:41;26.17;;;16.77;;
68888;SDS011;55930;47.412;8.790;2024-03-08T08:12:03;24.35;;;15.57;;
68888;SDS011;55930;47.412;8.790;2024-03-08T08:15:24;23.55;;;15.85;;
68888;SDS011;55930;47.412;8.790;2024-03-08T08:18:44;26.30;;;17.50;;
68888;SDS011;55930;47.412;8.790;2024-03-08T08:22:06;24.45;;;16.27;;
68888;SDS011;55930;47.412;8.790;2024-03-08T08:25:28;22.73;;;15.48;;
68888;SDS011;55930;47.412;8.790;2024-03-08T08:28:49;24.10;;;15.67;;
68888;SDS011;55930;47.412;8.790;2024-03-08T08:32:12;23.63;;;16.93;;
68888;SDS011;55930;47.412;8.790;2024-03-08T08:35:32;22.70;;;14.13;;
68888;SDS011;55930;47.412;8.790;2024-03-08T08:38:53;26.17;;;15.93;;
68888;SDS011;55930;47.412;8.790;2024-03-08T08:42:14;25.42;;;16.10;;
68888;SDS011;55930;47.412;8.790;2024-03-08T08:45:34;27.30;;;17.53;;
68888;SDS011;55930;47.412;8.790;2024-03-08T08:48:55;22.47;;;14.80;;
68888;SDS011;55930;47.412;8.790;2024-03-08T08:52:16;27.05;;;17.65;;
68888;SDS011;55930;47.412;8.790;2024-03-08T08:55:36;24.57;;;16.57;;
68888;SDS011;55930;47.412;8.790;2024-03-08T08:58:57;27.00;;;17.10;;
68888;SDS011;55930;47.412;8.790;2024-03-08T09:02:18;25.50;;;17.30;;
68888;SDS011;55930;47.412;8.790;2024-03-08T09:05:40;25.25;;;16.90;;
68888;SDS011;55930;47.412;8.790;2024-03-08T09:09:02;27.45;;;17.38;;
68888;SDS011;55930;47.412;8.790;2024-03-08T09:12:24;27.42;;;17.23;;
68888;SDS011;55930;47.412;8.790;2024-03-08T09:15:44;26.90;;;16.77;;
68888;SDS011;55930;47.412;8.790;2024-03-08T09:19:07;28.17;;;18.52;;
68888;SDS011;55930;47.412;8.790;2024-03-08T09:22:30;26.25;;;17.98;;
68888;SDS011;55930;47.412;8.790;2024-03-08T09:25:51;28.27;;;17.87;;
68888;SDS011;55930;47.412;8.790;2024-03-08T09:29:11;29.70;;;18.87;;
68888;SDS011;55930;47.412;8.790;2024-03-08T09:32:32;23.60;;;16.13;;
68888;SDS011;55930;47.412;8.790;2024-03-08T09:35:52;25.27;;;18.23;;
68888;SDS011;55930;47.412;8.790;2024-03-08T09:39:13;27.65;;;18.42;;
68888;SDS011;55930;47.412;8.790;2024-03-08T09:42:41;30.08;;;18.17;;
68888;SDS011;55930;47.412;8.790;2024-03-08T09:46:05;25.63;;;18.02;;
68888;SDS011;55930;47.412;8.790;2024-03-08T09:49:27;29.33;;;18.60;;
68888;SDS011;55930;47.412;8.790;2024-03-08T09:52:49;27.25;;;16.80;;
68888;SDS011;55930;47.412;8.790;2024-03-08T09:56:09;29.27;;;18.73;;
68888;SDS011;55930;47.412;8.790;2024-03-08T09:59:32;28.50;;;19.73;;
68888;SDS011;55930;47.412;8.790;2024-03-08T10:02:52;27.00;;;18.97;;
68888;SDS011;55930;47.412;8.790;2024-03-08T10:06:13;26.90;;;19.88;;
68888;SDS011;55930;47.412;8.790;2024-03-08T10:09:34;27.87;;;20.33;;
68888;SDS011;55930;47.412;8.790;2024-03-08T10:12:55;30.40;;;21.07;;
68888;SDS011;55930;47.412;8.790;2024-03-08T10:16:18;30.80;;;20.23;;
68888;SDS011;55930;47.412;8.790;2024-03-08T10:19:38;31.88;;;21.20;;
68888;SDS011;55930;47.412;8.790;2024-03-08T10:23:02;30.27;;;20.70;;
68888;SDS011;55930;47.412;8.790;2024-03-08T10:26:25;27.40;;;20.50;;
68888;SDS011;55930;47.412;8.790;2024-03-08T10:29:48;28.97;;;19.83;;
68888;SDS011;55930;47.412;8.790;2024-03-08T10:33:10;28.67;;;18.83;;
68888;SDS011;55930;47.412;8.790;2024-03-08T10:36:30;25.63;;;18.67;;
68888;SDS011;55930;47.412;8.790;2024-03-08T10:40:36;24.75;;;18.45;;
68888;SDS011;55930;47.412;8.790;2024-03-08T10:47:25;24.83;;;17.52;;
68888;SDS011;55930;47.412;8.790;2024-03-08T10:50:49;26.17;;;19.35;;
68888;SDS011;55930;47.412;8.790;2024-03-08T10:54:12;27.90;;;18.98;;
68888;SDS011;55930;47.412;8.790;2024-03-08T10:57:35;24.17;;;18.17;;
68888;SDS011;55930;47.412;8.790;2024-03-08T11:00:58;24.15;;;17.90;;
68888;SDS011;55930;47.412;8.790;2024-03-08T11:04:18;22.20;;;17.67;;
68888;SDS011;55930;47.412;8.790;2024-03-08T11:07:42;24.45;;;18.45;;
68888;SDS011;55930;47.412;8.790;2024-03-08T11:11:03;23.27;;;17.60;;
68888;SDS011;55930;47.412;8.790;2024-03-08T11:14:43;23.45;;;17.35;;
68888;SDS011;55930;47.412;8.790;2024-03-08T11:21:30;20.20;;;16.45;;
68888;SDS011;55930;47.412;8.790;2024-03-08T11:24:53;19.92;;;15.73;;
68888;SDS011;55930;47.412;8.790;2024-03-08T11:31:40;19.35;;;15.73;;
68888;SDS011;55930;47.412;8.790;2024-03-08T11:35:01;17.90;;;14.67;;
68888;SDS011;55930;47.412;8.790;2024-03-08T11:38:25;19.92;;;16.67;;
68888;SDS011;55930;47.412;8.790;2024-03-08T11:41:46;18.08;;;15.05;;
68888;SDS011;55930;47.412;8.790;2024-03-08T11:45:09;16.05;;;13.77;;
68888;SDS011;55930;47.412;8.790;2024-03-08T11:48:31;17.55;;;15.75;;
68888;SDS011;55930;47.412;8.790;2024-03-08T11:58:33;17.30;;;14.77;;
68888;SDS011;55930;47.412;8.790;2024-03-08T12:02:04;16.23;;;13.98;;
68888;SDS011;55930;47.412;8.790;2024-03-08T12:05:25;16.15;;;14.48;;
68888;SDS011;55930;47.412;8.790;2024-03-08T12:08:46;15.70;;;13.85;;
68888;SDS011;55930;47.412;8.790;2024-03-08T12:12:09;16.02;;;14.05;;
68888;SDS011;55930;47.412;8.790;2024-03-08T12:15:33;18.60;;;15.32;;
68888;SDS011;55930;47.412;8.790;2024-03-08T12:18:54;16.70;;;14.10;;
68888;SDS011;55930;47.412;8.790;2024-03-08T12:22:14;16.27;;;14.10;;
68888;SDS011;55930;47.412;8.790;2024-03-08T12:25:35;15.40;;;13.80;;
68888;SDS011;55930;47.412;8.790;2024-03-08T12:29:13;16.35;;;13.77;;
68888;SDS011;55930;47.412;8.790;2024-03-08T12:32:40;15.40;;;13.73;;
68888;SDS011;55930;47.412;8.790;2024-03-08T12:36:03;16.92;;;13.77;;
68888;SDS011;55930;47.412;8.790;2024-03-08T12:39:27;16.00;;;14.13;;
68888;SDS011;55930;47.412;8.790;2024-03-08T12:42:47;16.15;;;14.45;;
68888;SDS011;55930;47.412;8.790;2024-03-08T12:46:07;16.10;;;14.40;;
68888;SDS011;55930;47.412;8.790;2024-03-08T12:49:29;16.23;;;14.32;;
68888;SDS011;55930;47.412;8.790;2024-03-08T12:52:51;14.98;;;13.48;;
68888;SDS011;55930;47.412;8.790;2024-03-08T12:56:16;15.23;;;13.23;;
68888;SDS011;55930;47.412;8.790;2024-03-08T12:59:49;16.63;;;14.88;;
68888;SDS011;55930;47.412;8.790;2024-03-08T13:03:10;15.35;;;13.68;;
68888;SDS011;55930;47.412;8.790;2024-03-08T13:06:31;15.23;;;13.63;;
68888;SDS011;55930;47.412;8.790;2024-03-08T13:09:53;16.23;;;13.52;;
68888;SDS011;55930;47.412;8.790;2024-03-08T13:13:17;17.10;;;14.07;;
68888;SDS011;55930;47.412;8.790;2024-03-08T13:16:37;18.45;;;14.38;;
68888;SDS011;55930;47.412;8.790;2024-03-08T13:20:00;18.02;;;14.82;;
68888;SDS011;55930;47.412;8.790;2024-03-08T13:23:21;16.05;;;14.07;;
68888;SDS011;55930;47.412;8.790;2024-03-08T13:26:41;15.13;;;13.48;;
68888;SDS011;55930;47.412;8.790;2024-03-08T13:30:03;15.43;;;13.82;;
68888;SDS011;55930;47.412;8.790;2024-03-08T13:33:24;16.23;;;14.52;;
68888;SDS011;55930;47.412;8.790;2024-03-08T13:36:44;16.05;;;14.15;;
68888;SDS011;55930;47.412;8.790;2024-03-08T13:40:06;15.43;;;13.82;;
68888;SDS011;55930;47.412;8.790;2024-03-08T13:43:30;14.65;;;13.15;;
68888;SDS011;55930;47.412;8.790;2024-03-08T13:46:54;15.23;;;13.63;;
68888;SDS011;55930;47.412;8.790;2024-03-08T13:50:17;18.08;;;14.98;;
68888;SDS011;55930;47.412;8.790;2024-03-08T13:53:41;16.33;;;13.80;;
68888;SDS011;55930;47.412;8.790;2024-03-08T13:57:01;18.02;;;14.82;;
68888;SDS011;55930;47.412;8.790;2024-03-08T14:00:27;18.08;;;14.20;;
68888;SDS011;55930;47.412;8.790;2024-03-08T14:03:53;15.80;;;14.10;;
68888;SDS011;55930;47.412;8.790;2024-03-08T14:07:13;17.02;;;14.10;;
68888;SDS011;55930;47.412;8.790;2024-03-08T14:10:34;14.35;;;12.85;;
68888;SDS011;55930;47.412;8.790;2024-03-08T14:13:54;14.95;;;13.45;;
68888;SDS011;55930;47.412;8.790;2024-03-08T14:17:15;14.57;;;13.10;;
68888;SDS011;55930;47.412;8.790;2024-03-08T14:20:40;14.85;;;13.30;;
68888;SDS011;55930;47.412;8.790;2024-03-08T14:24:02;16.05;;;11.90;;
68888;SDS011;55930;47.412;8.790;2024-03-08T14:27:24;15.85;;;12.60;;
68888;SDS011;55930;47.412;8.790;2024-03-08T14:30:49;13.40;;;11.70;;
68888;SDS011;55930;47.412;8.790;2024-03-08T14:34:10;16.80;;;13.07;;
68888;SDS011;55930;47.412;8.790;2024-03-08T14:37:30;14.07;;;12.55;;
68888;SDS011;55930;47.412;8.790;2024-03-08T14:40:51;14.88;;;12.32;;
68888;SDS011;55930;47.412;8.790;2024-03-08T14:44:13;14.98;;;13.13;;
68888;SDS011;55930;47.412;8.790;2024-03-08T14:47:36;14.30;;;12.45;;
68888;SDS011;55930;47.412;8.790;2024-03-08T14:50:58;13.68;;;12.18;;
68888;SDS011;55930;47.412;8.790;2024-03-08T14:54:18;15.20;;;12.77;;
68888;SDS011;55930;47.412;8.790;2024-03-08T14:57:43;13.82;;;12.43;;
68888;SDS011;55930;47.412;8.790;2024-03-08T15:01:07;15.60;;;13.80;;
68888;SDS011;55930;47.412;8.790;2024-03-08T15:04:27;16.25;;;14.55;;
68888;SDS011;55930;47.412;8.790;2024-03-08T15:07:48;15.35;;;13.32;;
68888;SDS011;55930;47.412;8.790;2024-03-08T15:11:09;14.52;;;12.57;;
68888;SDS011;55930;47.412;8.790;2024-03-08T15:17:50;14.83;;;11.87;;
68888;SDS011;55930;47.412;8.790;2024-03-08T15:21:11;15.70;;;13.20;;
68888;SDS011;55930;47.412;8.790;2024-03-08T15:24:33;14.52;;;12.63;;
68888;SDS011;55930;47.412;8.790;2024-03-08T15:31:18;17.65;;;12.60;;
68888;SDS011;55930;47.412;8.790;2024-03-08T15:34:43;15.73;;;13.40;;
68888;SDS011;55930;47.412;8.790;2024-03-08T15:41:24;15.77;;;13.43;;
68888;SDS011;55930;47.412;8.790;2024-03-08T15:44:46;16.38;;;13.30;;
68888;SDS011;55930;47.412;8.790;2024-03-08T15:48:09;16.45;;;13.73;;
68888;SDS011;55930;47.412;8.790;2024-03-08T15:51:32;16.00;;;13.38;;
68888;SDS011;55930;47.412;8.790;2024-03-08T15:54:56;15.98;;;12.80;;
68888;SDS011;55930;47.412;8.790;2024-03-08T15:58:17;17.50;;;14.25;;
68888;SDS011;55930;47.412;8.790;2024-03-08T16:01:37;16.38;;;13.40;;
68888;SDS011;55930;47.412;8.790;2024-03-08T16:04:58;18.63;;;14.03;;
68888;SDS011;55930;47.412;8.790;2024-03-08T16:08:18;17.70;;;13.53;;
68888;SDS011;55930;47.412;8.790;2024-03-08T16:11:40;19.23;;;14.68;;
68888;SDS011;55930;47.412;8.790;2024-03-08T16:15:04;17.02;;;14.52;;
68888;SDS011;55930;47.412;8.790;2024-03-08T16:18:28;18.80;;;14.50;;
68888;SDS011;55930;47.412;8.790;2024-03-08T16:21:50;18.02;;;14.80;;
68888;SDS011;55930;47.412;8.790;2024-03-08T16:25:11;19.83;;;15.37;;
68888;SDS011;55930;47.412;8.790;2024-03-08T16:28:33;19.83;;;14.30;;
68888;SDS011;55930;47.412;8.790;2024-03-08T16:31:58;18.77;;;14.98;;
68888;SDS011;55930;47.412;8.790;2024-03-08T16:35:19;22.93;;;15.80;;
68888;SDS011;55930;47.412;8.790;2024-03-08T16:38:39;17.77;;;14.63;;
68888;SDS011;55930;47.412;8.790;2024-03-08T16:42:03;19.52;;;15.68;;
68888;SDS011;55930;47.412;8.790;2024-03-08T16:45:27;19.92;;;16.17;;
68888;SDS011;55930;47.412;8.790;2024-03-08T16:48:50;18.80;;;14.88;;
68888;SDS011;55930;47.412;8.790;2024-03-08T16:52:10;19.10;;;15.07;;
68888;SDS011;55930;47.412;8.790;2024-03-08T16:55:30;20.27;;;15.93;;
68888;SDS011;55930;47.412;8.790;2024-03-08T16:58:51;22.40;;;16.30;;
68888;SDS011;55930;47.412;8.790;2024-03-08T17:02:14;24.03;;;18.20;;
68888;SDS011;55930;47.412;8.790;2024-03-08T17:05:34;21.02;;;17.45;;
68888;SDS011;55930;47.412;8.790;2024-03-08T17:08:54;22.00;;;16.80;;
68888;SDS011;55930;47.412;8.790;2024-03-08T17:12:15;20.77;;;15.87;;
68888;SDS011;55930;47.412;8.790;2024-03-08T17:15:38;22.50;;;17.45;;
68888;SDS011;55930;47.412;8.790;2024-03-08T17:19:01;24.23;;;17.92;;
68888;SDS011;55930;47.412;8.790;2024-03-08T17:22:22;21.15;;;17.35;;
68888;SDS011;55930;47.412;8.790;2024-03-08T17:25:44;23.15;;;17.00;;
68888;SDS011;55930;47.412;8.790;2024-03-08T17:29:06;22.88;;;17.40;;
68888;SDS011;55930;47.412;8.790;2024-03-08T17:35:47;26.30;;;18.20;;
68888;SDS011;55930;47.412;8.790;2024-03-08T17:39:08;34.30;;;23.57;;
68888;SDS011;55930;47.412;8.790;2024-03-08T17:42:38;29.70;;;21.67;;
68888;SDS011;55930;47.412;8.790;2024-03-08T17:45:58;33.63;;;21.85;;
68888;SDS011;55930;47.412;8.790;2024-03-08T17:49:19;25.57;;;18.77;;
68888;SDS011;55930;47.412;8.790;2024-03-08T17:52:42;25.37;;;17.27;;
68888;SDS011;55930;47.412;8.790;2024-03-08T17:56:03;24.50;;;18.45;;
68888;SDS011;55930;47.412;8.790;2024-03-08T17:59:25;27.23;;;17.70;;
68888;SDS011;55930;47.412;8.790;2024-03-08T18:02:52;24.88;;;19.35;;
68888;SDS011;55930;47.412;8.790;2024-03-08T18:06:14;24.42;;;17.77;;
68888;SDS011;55930;47.412;8.790;2024-03-08T18:09:34;27.17;;;17.67;;
68888;SDS011;55930;47.412;8.790;2024-03-08T18:12:55;23.63;;;18.10;;
68888;SDS011;55930;47.412;8.790;2024-03-08T18:16:19;25.23;;;19.33;;
68888;SDS011;55930;47.412;8.790;2024-03-08T18:19:40;26.75;;;19.13;;
68888;SDS011;55930;47.412;8.790;2024-03-08T18:23:01;24.13;;;17.53;;
68888;SDS011;55930;47.412;8.790;2024-03-08T18:26:22;23.88;;;18.17;;
68888;SDS011;55930;47.412;8.790;2024-03-08T18:29:43;27.40;;;18.57;;
68888;SDS011;55930;47.412;8.790;2024-03-08T18:33:06;25.08;;;19.13;;
68888;SDS011;55930;47.412;8.790;2024-03-08T18:39:51;25.42;;;18.15;;
68888;SDS011;55930;47.412;8.790;2024-03-08T18:43:12;25.63;;;18.15;;
68888;SDS011;55930;47.412;8.790;2024-03-08T18:46:32;24.47;;;17.67;;
68888;SDS011;55930;47.412;8.790;2024-03-08T18:49:55;30.88;;;20.88;;
68888;SDS011;55930;47.412;8.790;2024-03-08T18:53:18;25.23;;;18.55;;
68888;SDS011;55930;47.412;8.790;2024-03-08T18:56:43;24.73;;;18.42;;
68888;SDS011;55930;47.412;8.790;2024-03-08T19:00:03;24.90;;;17.70;;
68888;SDS011;55930;47.412;8.790;2024-03-08T19:03:32;26.70;;;20.05;;
68888;SDS011;55930;47.412;8.790;2024-03-08T19:06:54;26.88;;;18.83;;
68888;SDS011;55930;47.412;8.790;2024-03-08T19:10:15;26.97;;;19.30;;
68888;SDS011;55930;47.412;8.790;2024-03-08T19:13:39;33.22;;;26.70;;
68888;SDS011;55930;47.412;8.790;2024-03-08T19:16:59;25.30;;;18.63;;
68888;SDS011;55930;47.412;8.790;2024-03-08T19:20:20;23.50;;;17.33;;
68888;SDS011;55930;47.412;8.790;2024-03-08T19:23:43;30.60;;;18.35;;
68888;SDS011;55930;47.412;8.790;2024-03-08T19:27:04;25.50;;;18.00;;
68888;SDS011;55930;47.412;8.790;2024-03-08T19:30:27;24.60;;;17.38;;
68888;SDS011;55930;47.412;8.790;2024-03-08T19:33:50;29.80;;;20.85;;
68888;SDS011;55930;47.412;8.790;2024-03-08T19:37:11;25.88;;;19.02;;
68888;SDS011;55930;47.412;8.790;2024-03-08T19:40:32;24.60;;;17.80;;
68888;SDS011;55930;47.412;8.790;2024-03-08T19:43:52;25.30;;;16.88;;
68888;SDS011;55930;47.412;8.790;2024-03-08T19:47:13;27.70;;;17.47;;
68888;SDS011;55930;47.412;8.790;2024-03-08T19:50:36;28.45;;;20.58;;
68888;SDS011;55930;47.412;8.790;2024-03-08T19:54:01;32.03;;;19.98;;
68888;SDS011;55930;47.412;8.790;2024-03-08T19:57:25;28.80;;;20.75;;
68888;SDS011;55930;47.412;8.790;2024-03-08T20:00:48;29.40;;;21.67;;
68888;SDS011;55930;47.412;8.790;2024-03-08T20:04:09;28.50;;;20.63;;
68888;SDS011;55930;47.412;8.790;2024-03-08T20:07:31;29.00;;;19.42;;
68888;SDS011;55930;47.412;8.790;2024-03-08T20:10:51;27.53;;;20.27;;
68888;SDS011;55930;47.412;8.790;2024-03-08T20:14:16;30.67;;;20.08;;